Startpagina
METAR-TAF:

METAR-TAF

Vliegvelden :

Luchthaven Belgrado Nikola Tesla

Belgrado, Servië

breedte: 44-49N, lengte: 020-17E, hoogte: 96 m

Actueel weer

Dit bericht is 26 minuten geleden gemaakt, om 20:00 UTC
Wind 24 kt uit het oostzuidoosten
Temperatuur 16°C
Vochtigheid 48%
Druk 1013 hPa
Zicht 10 km of meer
geen wolken onder 1500 m en geen cumulonimbus

METAR: LYBE 222000Z 12024KT CAVOK 16/05 Q1013 NOSIG

Tijdstip: 22:26 (20:26 UTC)

Verwachting

Dit bericht is 3 uur en het 26 minuten geleden gemaakt, om 17:00 UTC
Verwachting geldig van 22 om 18 UTC tot 23 om 18 UTC
Wind 20 kt uit het oostzuidoosten
Zicht 10 km of meer
geen wolken onder 1500 m en geen cumulonimbus
Tijdelijke
van 23 om 03 UTC tot 23 om 08 UTC
regen
Tijdelijke
van 23 om 08 UTC tot 23 om 18 UTC
Wind 25 kt uit het oostzuidoosten met uitschieters tot 40 kt

TAF: LYBE 221700Z 2218/2318 12020KT CAVOK TX18/2218Z TN09/2305Z TEMPO 2303/2308 RA TEMPO 2308/2318 12025G40KT

Waarnemingen en weersverwachtingen van meer dan 4000 vliegvelden (METAR en TAF).

De beschikbare stations zijn de gele en rode punten op de kaart.

Ga met uw muis naar het station om de naam te zien.

Klik dan om waarnemingen en weersverwachtingen te zien.

kaart wijzigen: klik op de groene knoppen met een zwart kruis om in te zoomen, op de groene knop met een streepje om uit te zoomen of op de groene pijlen voor aangrenzende kaarten.


METAR-TAF: